sensor_id;sensor_type;location;lat;lon;timestamp;pressure;altitude;pressure_sealevel;temperature;humidity
83308;BME280;73223;48.584;13.460;2024-02-26T00:01:00;95327.25;;;2.86;100.00
83308;BME280;73223;48.584;13.460;2024-02-26T00:03:25;95330.88;;;2.75;100.00
83308;BME280;73223;48.584;13.460;2024-02-26T00:05:50;95334.59;;;2.64;100.00
83308;BME280;73223;48.584;13.460;2024-02-26T00:08:16;95331.66;;;2.79;100.00
83308;BME280;73223;48.584;13.460;2024-02-26T00:10:41;95330.94;;;2.74;100.00
83308;BME280;73223;48.584;13.460;2024-02-26T00:13:07;95326.84;;;2.67;100.00
83308;BME280;73223;48.584;13.460;2024-02-26T00:15:33;95326.31;;;2.88;100.00
83308;BME280;73223;48.584;13.460;2024-02-26T00:18:00;95322.38;;;2.75;100.00
83308;BME280;73223;48.584;13.460;2024-02-26T00:20:25;95315.53;;;2.75;100.00
83308;BME280;73223;48.584;13.460;2024-02-26T00:22:51;95317.63;;;2.60;100.00
83308;BME280;73223;48.584;13.460;2024-02-26T00:25:16;95313.41;;;2.59;100.00
83308;BME280;73223;48.584;13.460;2024-02-26T00:27:41;95321.81;;;2.64;100.00
83308;BME280;73223;48.584;13.460;2024-02-26T00:30:08;95315.78;;;2.66;100.00
83308;BME280;73223;48.584;13.460;2024-02-26T00:32:34;95310.88;;;2.57;100.00
83308;BME280;73223;48.584;13.460;2024-02-26T00:34:59;95294.44;;;2.67;100.00
83308;BME280;73223;48.584;13.460;2024-02-26T00:37:24;95301.00;;;2.42;100.00
83308;BME280;73223;48.584;13.460;2024-02-26T00:39:50;95295.66;;;2.51;100.00
83308;BME280;73223;48.584;13.460;2024-02-26T00:42:15;95298.34;;;2.47;100.00
83308;BME280;73223;48.584;13.460;2024-02-26T00:44:40;95293.94;;;2.52;100.00
83308;BME280;73223;48.584;13.460;2024-02-26T00:47:05;95302.91;;;2.34;100.00
83308;BME280;73223;48.584;13.460;2024-02-26T00:49:31;95301.28;;;2.31;100.00
83308;BME280;73223;48.584;13.460;2024-02-26T00:51:56;95294.22;;;2.41;100.00
83308;BME280;73223;48.584;13.460;2024-02-26T00:54:21;95289.97;;;2.04;100.00
83308;BME280;73223;48.584;13.460;2024-02-26T00:56:46;95285.06;;;2.32;100.00
83308;BME280;73223;48.584;13.460;2024-02-26T00:59:12;95278.06;;;2.39;100.00
83308;BME280;73223;48.584;13.460;2024-02-26T01:01:37;95275.44;;;2.42;100.00
83308;BME280;73223;48.584;13.460;2024-02-26T01:04:02;95269.03;;;2.26;100.00
83308;BME280;73223;48.584;13.460;2024-02-26T01:06:28;95266.63;;;2.18;100.00
83308;BME280;73223;48.584;13.460;2024-02-26T01:08:53;95267.69;;;1.72;100.00
83308;BME280;73223;48.584;13.460;2024-02-26T01:11:18;95268.41;;;1.79;100.00
83308;BME280;73223;48.584;13.460;2024-02-26T01:13:44;95268.22;;;1.87;100.00
83308;BME280;73223;48.584;13.460;2024-02-26T01:16:09;95260.91;;;2.08;100.00
83308;BME280;73223;48.584;13.460;2024-02-26T01:18:36;95260.97;;;2.41;100.00
83308;BME280;73223;48.584;13.460;2024-02-26T01:21:01;95261.16;;;2.33;100.00
83308;BME280;73223;48.584;13.460;2024-02-26T01:23:26;95253.31;;;2.41;100.00
83308;BME280;73223;48.584;13.460;2024-02-26T01:25:51;95254.44;;;2.29;100.00
83308;BME280;73223;48.584;13.460;2024-02-26T01:28:17;95250.84;;;2.01;100.00
83308;BME280;73223;48.584;13.460;2024-02-26T01:30:42;95250.88;;;1.99;100.00
83308;BME280;73223;48.584;13.460;2024-02-26T01:33:07;95251.03;;;1.93;100.00
83308;BME280;73223;48.584;13.460;2024-02-26T01:35:33;95248.75;;;1.81;100.00
83308;BME280;73223;48.584;13.460;2024-02-26T01:37:58;95240.06;;;1.88;100.00
83308;BME280;73223;48.584;13.460;2024-02-26T01:40:26;95242.19;;;2.08;100.00
83308;BME280;73223;48.584;13.460;2024-02-26T01:42:52;95238.00;;;2.04;100.00
83308;BME280;73223;48.584;13.460;2024-02-26T01:45:18;95236.94;;;2.14;100.00
83308;BME280;73223;48.584;13.460;2024-02-26T01:47:52;95243.13;;;2.04;100.00
83308;BME280;73223;48.584;13.460;2024-02-26T01:50:18;95244.09;;;1.98;100.00
83308;BME280;73223;48.584;13.460;2024-02-26T01:52:45;95238.41;;;1.87;100.00
83308;BME280;73223;48.584;13.460;2024-02-26T01:55:13;95237.13;;;2.05;100.00
83308;BME280;73223;48.584;13.460;2024-02-26T01:57:40;95244.63;;;2.13;100.00
83308;BME280;73223;48.584;13.460;2024-02-26T02:00:06;95250.66;;;2.10;100.00
83308;BME280;73223;48.584;13.460;2024-02-26T02:02:33;95255.69;;;2.13;100.00
83308;BME280;73223;48.584;13.460;2024-02-26T02:04:58;95254.56;;;2.25;100.00
83308;BME280;73223;48.584;13.460;2024-02-26T02:07:24;95247.22;;;2.11;100.00
83308;BME280;73223;48.584;13.460;2024-02-26T02:09:50;95253.88;;;2.17;100.00
83308;BME280;73223;48.584;13.460;2024-02-26T02:12:15;95260.00;;;2.11;100.00
83308;BME280;73223;48.584;13.460;2024-02-26T02:14:40;95261.69;;;2.12;100.00
83308;BME280;73223;48.584;13.460;2024-02-26T02:17:06;95257.47;;;2.09;100.00
83308;BME280;73223;48.584;13.460;2024-02-26T02:19:32;95262.25;;;2.23;100.00
83308;BME280;73223;48.584;13.460;2024-02-26T02:21:57;95258.31;;;2.10;100.00
83308;BME280;73223;48.584;13.460;2024-02-26T02:24:22;95260.06;;;2.08;100.00
83308;BME280;73223;48.584;13.460;2024-02-26T02:26:48;95261.03;;;2.02;100.00
83308;BME280;73223;48.584;13.460;2024-02-26T02:29:14;95265.16;;;2.09;100.00
83308;BME280;73223;48.584;13.460;2024-02-26T02:31:40;95266.66;;;2.17;100.00
83308;BME280;73223;48.584;13.460;2024-02-26T02:34:05;95263.72;;;2.33;100.00
83308;BME280;73223;48.584;13.460;2024-02-26T02:36:31;95261.44;;;2.21;100.00
83308;BME280;73223;48.584;13.460;2024-02-26T02:38:56;95265.72;;;2.21;100.00
83308;BME280;73223;48.584;13.460;2024-02-26T02:41:21;95261.69;;;2.12;100.00
83308;BME280;73223;48.584;13.460;2024-02-26T02:43:46;95257.53;;;2.06;100.00
83308;BME280;73223;48.584;13.460;2024-02-26T02:46:12;95262.69;;;2.05;100.00
83308;BME280;73223;48.584;13.460;2024-02-26T02:48:37;95261.66;;;1.75;100.00
83308;BME280;73223;48.584;13.460;2024-02-26T02:51:03;95259.00;;;1.80;100.00
83308;BME280;73223;48.584;13.460;2024-02-26T02:53:29;95261.69;;;1.73;100.00
83308;BME280;73223;48.584;13.460;2024-02-26T02:55:54;95261.03;;;1.64;100.00
83308;BME280;73223;48.584;13.460;2024-02-26T02:58:19;95261.16;;;1.59;100.00
83308;BME280;73223;48.584;13.460;2024-02-26T03:00:45;95250.91;;;1.61;100.00
83308;BME280;73223;48.584;13.460;2024-02-26T03:03:10;95254.69;;;1.43;100.00
83308;BME280;73223;48.584;13.460;2024-02-26T03:05:35;95250.63;;;1.33;100.00
83308;BME280;73223;48.584;13.460;2024-02-26T03:08:01;95251.06;;;1.53;100.00
83308;BME280;73223;48.584;13.460;2024-02-26T03:10:26;95254.09;;;1.30;100.00
83308;BME280;73223;48.584;13.460;2024-02-26T03:12:51;95246.34;;;1.35;100.00
83308;BME280;73223;48.584;13.460;2024-02-26T03:15:16;95238.44;;;1.46;100.00
83308;BME280;73223;48.584;13.460;2024-02-26T03:17:42;95237.47;;;1.53;100.00
83308;BME280;73223;48.584;13.460;2024-02-26T03:20:08;95234.97;;;1.50;100.00
83308;BME280;73223;48.584;13.460;2024-02-26T03:22:34;95236.41;;;1.23;100.00
83308;BME280;73223;48.584;13.460;2024-02-26T03:25:00;95228.41;;;0.96;100.00
83308;BME280;73223;48.584;13.460;2024-02-26T03:27:25;95224.53;;;0.76;100.00
83308;BME280;73223;48.584;13.460;2024-02-26T03:29:50;95216.53;;;0.94;100.00
83308;BME280;73223;48.584;13.460;2024-02-26T03:32:16;95222.50;;;0.93;100.00
83308;BME280;73223;48.584;13.460;2024-02-26T03:34:41;95220.00;;;0.91;100.00
83308;BME280;73223;48.584;13.460;2024-02-26T03:37:06;95218.38;;;0.87;100.00
83308;BME280;73223;48.584;13.460;2024-02-26T03:39:34;95214.84;;;0.93;100.00
83308;BME280;73223;48.584;13.460;2024-02-26T03:41:59;95215.38;;;0.67;100.00
83308;BME280;73223;48.584;13.460;2024-02-26T03:44:24;95217.53;;;0.87;100.00
83308;BME280;73223;48.584;13.460;2024-02-26T03:46:50;95224.66;;;0.71;100.00
83308;BME280;73223;48.584;13.460;2024-02-26T03:49:15;95216.72;;;0.86;100.00
83308;BME280;73223;48.584;13.460;2024-02-26T03:51:41;95231.34;;;0.75;100.00
83308;BME280;73223;48.584;13.460;2024-02-26T03:54:06;95232.72;;;-0.04;100.00
83308;BME280;73223;48.584;13.460;2024-02-26T03:56:32;95228.75;;;0.78;100.00
83308;BME280;73223;48.584;13.460;2024-02-26T03:58:57;95220.47;;;1.10;100.00
83308;BME280;73223;48.584;13.460;2024-02-26T04:01:24;95223.75;;;1.17;100.00
83308;BME280;73223;48.584;13.460;2024-02-26T04:03:49;95220.88;;;1.32;100.00
83308;BME280;73223;48.584;13.460;2024-02-26T04:06:15;95230.03;;;1.42;100.00
83308;BME280;73223;48.584;13.460;2024-02-26T04:08:43;95234.88;;;1.13;100.00
83308;BME280;73223;48.584;13.460;2024-02-26T04:11:08;95242.75;;;1.02;100.00
83308;BME280;73223;48.584;13.460;2024-02-26T04:13:33;95241.59;;;1.17;100.00
83308;BME280;73223;48.584;13.460;2024-02-26T04:15:59;95245.09;;;1.13;100.00
83308;BME280;73223;48.584;13.460;2024-02-26T04:18:26;95246.06;;;1.07;100.00
83308;BME280;73223;48.584;13.460;2024-02-26T04:20:52;95247.91;;;1.42;100.00
83308;BME280;73223;48.584;13.460;2024-02-26T04:23:17;95255.19;;;1.19;100.00
83308;BME280;73223;48.584;13.460;2024-02-26T04:25:42;95253.66;;;1.52;100.00
83308;BME280;73223;48.584;13.460;2024-02-26T04:28:08;95252.53;;;1.63;100.00
83308;BME280;73223;48.584;13.460;2024-02-26T04:30:33;95257.69;;;1.62;100.00
83308;BME280;73223;48.584;13.460;2024-02-26T04:32:58;95254.97;;;1.69;100.00
83308;BME280;73223;48.584;13.460;2024-02-26T04:35:24;95257.47;;;1.72;100.00
83308;BME280;73223;48.584;13.460;2024-02-26T04:37:49;95252.50;;;1.65;100.00
83308;BME280;73223;48.584;13.460;2024-02-26T04:40:14;95254.06;;;1.72;100.00
83308;BME280;73223;48.584;13.460;2024-02-26T04:42:40;95257.78;;;1.59;100.00
83308;BME280;73223;48.584;13.460;2024-02-26T04:45:05;95263.13;;;1.45;100.00
83308;BME280;73223;48.584;13.460;2024-02-26T04:47:32;95257.66;;;1.63;100.00
83308;BME280;73223;48.584;13.460;2024-02-26T04:49:57;95256.06;;;1.59;100.00
83308;BME280;73223;48.584;13.460;2024-02-26T04:52:22;95254.44;;;1.55;100.00
83308;BME280;73223;48.584;13.460;2024-02-26T04:54:48;95253.97;;;1.36;100.00
83308;BME280;73223;48.584;13.460;2024-02-26T04:57:13;95255.84;;;1.27;100.00
83308;BME280;73223;48.584;13.460;2024-02-26T04:59:38;95248.66;;;1.06;100.00
83308;BME280;73223;48.584;13.460;2024-02-26T05:02:05;95241.03;;;1.02;100.00
83308;BME280;73223;48.584;13.460;2024-02-26T05:04:31;95237.13;;;0.85;100.00
83308;BME280;73223;48.584;13.460;2024-02-26T05:06:56;95239.53;;;0.92;100.00
83308;BME280;73223;48.584;13.460;2024-02-26T05:09:22;95243.97;;;0.35;100.00
83308;BME280;73223;48.584;13.460;2024-02-26T05:11:47;95242.22;;;0.37;100.00
83308;BME280;73223;48.584;13.460;2024-02-26T05:14:12;95241.28;;;0.43;100.00
83308;BME280;73223;48.584;13.460;2024-02-26T05:16:37;95244.34;;;0.61;100.00
83308;BME280;73223;48.584;13.460;2024-02-26T05:19:03;95243.66;;;0.53;100.00
83308;BME280;73223;48.584;13.460;2024-02-26T05:21:28;95238.66;;;-0.04;100.00
83308;BME280;73223;48.584;13.460;2024-02-26T05:23:53;95244.66;;;0.45;100.00
83308;BME280;73223;48.584;13.460;2024-02-26T05:26:22;95259.19;;;0.38;100.00
83308;BME280;73223;48.584;13.460;2024-02-26T05:28:48;95250.53;;;0.50;100.00
83308;BME280;73223;48.584;13.460;2024-02-26T05:31:14;95244.63;;;0.46;100.00
83308;BME280;73223;48.584;13.460;2024-02-26T05:33:39;95252.53;;;0.80;100.00
83308;BME280;73223;48.584;13.460;2024-02-26T05:36:05;95250.88;;;0.76;100.00
83308;BME280;73223;48.584;13.460;2024-02-26T05:38:30;95256.22;;;0.64;100.00
83308;BME280;73223;48.584;13.460;2024-02-26T05:40:57;95253.47;;;0.73;100.00
83308;BME280;73223;48.584;13.460;2024-02-26T05:43:23;95251.13;;;0.62;100.00
83308;BME280;73223;48.584;13.460;2024-02-26T05:45:48;95251.22;;;0.58;100.00
83308;BME280;73223;48.584;13.460;2024-02-26T05:48:14;95256.97;;;0.71;100.00
83308;BME280;73223;48.584;13.460;2024-02-26T05:50:39;95256.28;;;0.59;100.00
83308;BME280;73223;48.584;13.460;2024-02-26T05:53:04;95252.06;;;0.58;100.00
83308;BME280;73223;48.584;13.460;2024-02-26T05:55:29;95255.09;;;0.31;100.00
83308;BME280;73223;48.584;13.460;2024-02-26T06:00:22;95257.09;;;1.08;100.00
83308;BME280;73223;48.584;13.460;2024-02-26T06:02:47;95263.78;;;1.13;100.00
83308;BME280;73223;48.584;13.460;2024-02-26T06:05:12;95256.22;;;1.09;100.00
83308;BME280;73223;48.584;13.460;2024-02-26T06:07:38;95267.66;;;0.89;100.00
83308;BME280;73223;48.584;13.460;2024-02-26T06:10:03;95268.34;;;0.97;100.00
83308;BME280;73223;48.584;13.460;2024-02-26T06:12:30;95272.16;;;1.21;100.00
83308;BME280;73223;48.584;13.460;2024-02-26T06:14:56;95268.00;;;1.16;100.00
83308;BME280;73223;48.584;13.460;2024-02-26T06:17:21;95276.25;;;1.28;100.00
83308;BME280;73223;48.584;13.460;2024-02-26T06:19:46;95270.59;;;1.13;100.00
83308;BME280;73223;48.584;13.460;2024-02-26T06:22:14;95279.50;;;1.36;100.00
83308;BME280;73223;48.584;13.460;2024-02-26T06:24:39;95277.09;;;1.29;100.00
83308;BME280;73223;48.584;13.460;2024-02-26T06:27:05;95286.03;;;1.50;100.00
83308;BME280;73223;48.584;13.460;2024-02-26T06:29:30;95288.50;;;1.54;100.00
83308;BME280;73223;48.584;13.460;2024-02-26T06:31:56;95292.16;;;1.43;100.00
83308;BME280;73223;48.584;13.460;2024-02-26T06:34:21;95299.81;;;1.43;100.00
83308;BME280;73223;48.584;13.460;2024-02-26T06:36:46;95309.69;;;1.59;100.00
83308;BME280;73223;48.584;13.460;2024-02-26T06:39:12;95306.78;;;1.33;100.00
83308;BME280;73223;48.584;13.460;2024-02-26T06:41:37;95305.88;;;1.37;100.00
83308;BME280;73223;48.584;13.460;2024-02-26T06:44:04;95308.13;;;1.51;100.00
83308;BME280;73223;48.584;13.460;2024-02-26T06:46:29;95316.00;;;1.42;100.00
83308;BME280;73223;48.584;13.460;2024-02-26T06:48:55;95313.91;;;1.60;100.00
83308;BME280;73223;48.584;13.460;2024-02-26T06:51:21;95316.66;;;1.51;100.00
83308;BME280;73223;48.584;13.460;2024-02-26T06:53:46;95314.44;;;1.33;100.00
83308;BME280;73223;48.584;13.460;2024-02-26T06:56:11;95318.53;;;1.43;100.00
83308;BME280;73223;48.584;13.460;2024-02-26T06:58:36;95314.66;;;1.65;100.00
83308;BME280;73223;48.584;13.460;2024-02-26T07:01:02;95317.88;;;1.75;100.00
83308;BME280;73223;48.584;13.460;2024-02-26T07:03:27;95324.69;;;1.74;100.00
83308;BME280;73223;48.584;13.460;2024-02-26T07:05:52;95323.66;;;1.82;100.00
83308;BME280;73223;48.584;13.460;2024-02-26T07:08:18;95317.09;;;2.10;100.00
83308;BME280;73223;48.584;13.460;2024-02-26T07:10:44;95322.00;;;2.19;100.00
83308;BME280;73223;48.584;13.460;2024-02-26T07:13:09;95317.38;;;2.35;100.00
83308;BME280;73223;48.584;13.460;2024-02-26T07:15:34;95318.84;;;2.08;100.00
83308;BME280;73223;48.584;13.460;2024-02-26T07:18:00;95305.84;;;2.17;100.00
83308;BME280;73223;48.584;13.460;2024-02-26T07:20:29;95310.47;;;2.01;100.00
83308;BME280;73223;48.584;13.460;2024-02-26T07:22:54;95311.97;;;2.47;100.00
83308;BME280;73223;48.584;13.460;2024-02-26T07:25:20;95310.91;;;2.20;100.00
83308;BME280;73223;48.584;13.460;2024-02-26T07:27:46;95310.50;;;2.37;100.00
83308;BME280;73223;48.584;13.460;2024-02-26T07:30:11;95312.22;;;2.72;100.00
83308;BME280;73223;48.584;13.460;2024-02-26T07:32:37;95312.84;;;2.82;100.00
83308;BME280;73223;48.584;13.460;2024-02-26T07:35:02;95320.34;;;3.22;100.00
83308;BME280;73223;48.584;13.460;2024-02-26T07:37:28;95317.13;;;3.13;100.00
83308;BME280;73223;48.584;13.460;2024-02-26T07:39:53;95318.75;;;2.84;100.00
83308;BME280;73223;48.584;13.460;2024-02-26T07:42:19;95327.75;;;3.31;100.00
83308;BME280;73223;48.584;13.460;2024-02-26T07:44:44;95330.44;;;3.26;100.00
83308;BME280;73223;48.584;13.460;2024-02-26T07:47:10;95335.31;;;2.69;100.00
83308;BME280;73223;48.584;13.460;2024-02-26T07:49:35;95341.03;;;3.12;100.00
83308;BME280;73223;48.584;13.460;2024-02-26T07:52:00;95342.09;;;2.70;100.00
83308;BME280;73223;48.584;13.460;2024-02-26T07:54:26;95335.47;;;3.29;100.00
83308;BME280;73223;48.584;13.460;2024-02-26T07:56:51;95327.31;;;3.47;100.00
83308;BME280;73223;48.584;13.460;2024-02-26T07:59:16;95336.38;;;3.59;100.00
83308;BME280;73223;48.584;13.460;2024-02-26T08:01:42;95334.16;;;3.76;100.00
83308;BME280;73223;48.584;13.460;2024-02-26T08:04:08;95328.38;;;3.99;100.00
83308;BME280;73223;48.584;13.460;2024-02-26T08:06:33;95330.16;;;3.97;100.00
83308;BME280;73223;48.584;13.460;2024-02-26T08:08:58;95335.25;;;3.69;100.00
83308;BME280;73223;48.584;13.460;2024-02-26T08:11:24;95333.06;;;4.14;100.00
83308;BME280;73223;48.584;13.460;2024-02-26T08:13:49;95332.66;;;4.28;100.00
83308;BME280;73223;48.584;13.460;2024-02-26T08:16:14;95331.88;;;3.97;100.00
83308;BME280;73223;48.584;13.460;2024-02-26T08:18:39;95330.53;;;4.13;100.00
83308;BME280;73223;48.584;13.460;2024-02-26T08:21:05;95334.06;;;4.10;100.00
83308;BME280;73223;48.584;13.460;2024-02-26T08:23:30;95336.28;;;4.49;100.00
83308;BME280;73223;48.584;13.460;2024-02-26T08:25:56;95336.47;;;4.43;100.00
83308;BME280;73223;48.584;13.460;2024-02-26T08:28:22;95339.22;;;4.65;100.00
83308;BME280;73223;48.584;13.460;2024-02-26T08:30:47;95338.53;;;4.60;100.00
83308;BME280;73223;48.584;13.460;2024-02-26T08:33:12;95333.88;;;4.44;100.00
83308;BME280;73223;48.584;13.460;2024-02-26T08:35:38;95327.72;;;4.48;100.00
83308;BME280;73223;48.584;13.460;2024-02-26T08:38:04;95344.00;;;4.75;100.00
83308;BME280;73223;48.584;13.460;2024-02-26T08:40:29;95337.56;;;5.15;100.00
83308;BME280;73223;48.584;13.460;2024-02-26T08:42:55;95343.22;;;4.73;100.00
83308;BME280;73223;48.584;13.460;2024-02-26T08:45:21;95343.22;;;5.00;100.00
83308;BME280;73223;48.584;13.460;2024-02-26T08:47:46;95347.22;;;4.82;100.00
83308;BME280;73223;48.584;13.460;2024-02-26T08:50:11;95354.63;;;4.65;100.00
83308;BME280;73223;48.584;13.460;2024-02-26T08:52:40;95349.69;;;4.01;100.00
83308;BME280;73223;48.584;13.460;2024-02-26T08:55:06;95350.63;;;4.82;100.00
83308;BME280;73223;48.584;13.460;2024-02-26T08:57:33;95340.97;;;5.40;100.00
83308;BME280;73223;48.584;13.460;2024-02-26T08:59:59;95343.28;;;6.19;100.00
83308;BME280;73223;48.584;13.460;2024-02-26T09:02:25;95339.97;;;6.61;100.00
83308;BME280;73223;48.584;13.460;2024-02-26T09:04:50;95338.22;;;6.61;100.00
83308;BME280;73223;48.584;13.460;2024-02-26T09:07:18;95339.25;;;6.79;100.00
83308;BME280;73223;48.584;13.460;2024-02-26T09:09:44;95342.44;;;6.84;100.00
83308;BME280;73223;48.584;13.460;2024-02-26T09:12:09;95348.66;;;7.01;100.00
83308;BME280;73223;48.584;13.460;2024-02-26T09:14:34;95338.72;;;7.34;100.00
83308;BME280;73223;48.584;13.460;2024-02-26T09:16:59;95345.47;;;7.56;100.00
83308;BME280;73223;48.584;13.460;2024-02-26T09:19:26;95350.34;;;7.83;100.00
83308;BME280;73223;48.584;13.460;2024-02-26T09:21:52;95349.66;;;7.98;100.00
83308;BME280;73223;48.584;13.460;2024-02-26T09:24:21;95352.63;;;7.89;100.00
83308;BME280;73223;48.584;13.460;2024-02-26T09:26:46;95352.31;;;8.15;100.00
83308;BME280;73223;48.584;13.460;2024-02-26T09:29:12;95354.69;;;8.40;100.00
83308;BME280;73223;48.584;13.460;2024-02-26T09:31:37;95354.66;;;8.59;100.00
83308;BME280;73223;48.584;13.460;2024-02-26T09:34:05;95351.25;;;8.94;100.00
83308;BME280;73223;48.584;13.460;2024-02-26T09:36:30;95344.78;;;9.03;100.00
83308;BME280;73223;48.584;13.460;2024-02-26T09:38:56;95366.44;;;8.64;100.00
83308;BME280;73223;48.584;13.460;2024-02-26T09:41:21;95359.56;;;8.26;100.00
83308;BME280;73223;48.584;13.460;2024-02-26T09:43:48;95366.63;;;8.04;100.00
83308;BME280;73223;48.584;13.460;2024-02-26T09:46:15;95359.22;;;7.96;100.00
83308;BME280;73223;48.584;13.460;2024-02-26T09:48:43;95367.53;;;8.02;100.00
83308;BME280;73223;48.584;13.460;2024-02-26T09:51:10;95377.56;;;7.29;100.00
83308;BME280;73223;48.584;13.460;2024-02-26T09:53:37;95367.63;;;7.81;100.00
83308;BME280;73223;48.584;13.460;2024-02-26T09:56:06;95373.69;;;7.59;100.00
83308;BME280;73223;48.584;13.460;2024-02-26T09:58:32;95361.63;;;8.57;100.00
83308;BME280;73223;48.584;13.460;2024-02-26T10:00:58;95364.19;;;9.46;100.00
83308;BME280;73223;48.584;13.460;2024-02-26T10:03:31;95363.25;;;10.15;86.64
83308;BME280;73223;48.584;13.460;2024-02-26T10:05:59;95362.06;;;11.00;79.43
83308;BME280;73223;48.584;13.460;2024-02-26T10:08:28;95363.31;;;10.77;74.01
83308;BME280;73223;48.584;13.460;2024-02-26T10:10:54;95363.16;;;10.81;64.19
83308;BME280;73223;48.584;13.460;2024-02-26T10:13:19;95368.78;;;9.91;76.87
83308;BME280;73223;48.584;13.460;2024-02-26T10:15:45;95358.59;;;11.16;68.71
83308;BME280;73223;48.584;13.460;2024-02-26T10:18:11;95346.47;;;11.90;72.14
83308;BME280;73223;48.584;13.460;2024-02-26T10:20:36;95338.19;;;12.69;65.27
83308;BME280;73223;48.584;13.460;2024-02-26T10:23:03;95348.25;;;12.32;64.04
83308;BME280;73223;48.584;13.460;2024-02-26T10:25:30;95347.03;;;12.52;72.13
83308;BME280;73223;48.584;13.460;2024-02-26T10:28:00;95333.16;;;13.07;71.19
83308;BME280;73223;48.584;13.460;2024-02-26T10:30:27;95337.56;;;13.19;70.79
83308;BME280;73223;48.584;13.460;2024-02-26T10:32:53;95341.38;;;13.13;80.25
83308;BME280;73223;48.584;13.460;2024-02-26T10:35:19;95339.44;;;12.76;76.74
83308;BME280;73223;48.584;13.460;2024-02-26T10:37:49;95338.09;;;12.70;70.63
83308;BME280;73223;48.584;13.460;2024-02-26T10:40:15;95352.97;;;12.40;68.05
83308;BME280;73223;48.584;13.460;2024-02-26T10:42:41;95346.78;;;12.28;68.10
83308;BME280;73223;48.584;13.460;2024-02-26T10:45:07;95341.09;;;12.22;65.66
83308;BME280;73223;48.584;13.460;2024-02-26T10:47:34;95346.59;;;12.86;66.99
83308;BME280;73223;48.584;13.460;2024-02-26T10:50:04;95340.09;;;13.20;66.71
83308;BME280;73223;48.584;13.460;2024-02-26T10:52:34;95331.00;;;13.53;67.31
83308;BME280;73223;48.584;13.460;2024-02-26T10:55:01;95329.34;;;12.98;66.42
83308;BME280;73223;48.584;13.460;2024-02-26T10:57:31;95334.44;;;14.17;64.74
83308;BME280;73223;48.584;13.460;2024-02-26T10:59:59;95338.50;;;13.70;69.73
83308;BME280;73223;48.584;13.460;2024-02-26T11:02:25;95339.69;;;13.92;60.70
83308;BME280;73223;48.584;13.460;2024-02-26T11:04:51;95340.94;;;14.11;60.95
83308;BME280;73223;48.584;13.460;2024-02-26T11:07:17;95336.72;;;14.59;60.75
83308;BME280;73223;48.584;13.460;2024-02-26T11:09:44;95345.97;;;12.69;63.07
83308;BME280;73223;48.584;13.460;2024-02-26T11:12:12;95336.13;;;13.28;63.06
83308;BME280;73223;48.584;13.460;2024-02-26T11:14:40;95333.16;;;13.07;60.48
83308;BME280;73223;48.584;13.460;2024-02-26T11:17:07;95332.31;;;13.33;58.98
83308;BME280;73223;48.584;13.460;2024-02-26T11:19:35;95329.72;;;11.52;66.54
83308;BME280;73223;48.584;13.460;2024-02-26T11:22:01;95333.41;;;12.06;67.78
83308;BME280;73223;48.584;13.460;2024-02-26T11:24:26;95344.47;;;12.09;70.16
83308;BME280;73223;48.584;13.460;2024-02-26T11:26:55;95340.44;;;11.16;75.40
83308;BME280;73223;48.584;13.460;2024-02-26T11:29:30;95336.75;;;11.79;72.91
83308;BME280;73223;48.584;13.460;2024-02-26T11:31:59;95335.56;;;11.99;71.13
83308;BME280;73223;48.584;13.460;2024-02-26T11:34:25;95337.41;;;11.97;69.47
83308;BME280;73223;48.584;13.460;2024-02-26T11:36:50;95340.72;;;11.85;77.69
83308;BME280;73223;48.584;13.460;2024-02-26T11:39:16;95333.72;;;12.98;65.20
83308;BME280;73223;48.584;13.460;2024-02-26T11:41:42;95328.13;;;12.77;65.79
83308;BME280;73223;48.584;13.460;2024-02-26T11:44:08;95322.72;;;12.80;63.11
83308;BME280;73223;48.584;13.460;2024-02-26T11:46:39;95321.50;;;12.85;66.08
83308;BME280;73223;48.584;13.460;2024-02-26T11:51:51;95309.22;;;13.14;65.25
83308;BME280;73223;48.584;13.460;2024-02-26T11:54:49;95315.09;;;13.70;61.98
83308;BME280;73223;48.584;13.460;2024-02-26T11:59:47;95306.63;;;14.17;60.56
83308;BME280;73223;48.584;13.460;2024-02-26T12:02:44;95303.59;;;14.49;60.77
83308;BME280;73223;48.584;13.460;2024-02-26T12:05:16;95308.22;;;14.07;60.82
83308;BME280;73223;48.584;13.460;2024-02-26T12:07:45;95312.09;;;14.64;59.74
83308;BME280;73223;48.584;13.460;2024-02-26T12:10:17;95312.31;;;14.61;58.13
83308;BME280;73223;48.584;13.460;2024-02-26T12:12:45;95311.75;;;13.81;58.91
83308;BME280;73223;48.584;13.460;2024-02-26T12:15:11;95306.94;;;14.00;58.66
83308;BME280;73223;48.584;13.460;2024-02-26T12:17:37;95315.69;;;13.99;57.63
83308;BME280;73223;48.584;13.460;2024-02-26T12:20:10;95308.50;;;13.65;58.75
83308;BME280;73223;48.584;13.460;2024-02-26T12:22:36;95315.63;;;12.69;59.24
83308;BME280;73223;48.584;13.460;2024-02-26T12:25:04;95312.22;;;13.48;59.91
83308;BME280;73223;48.584;13.460;2024-02-26T12:27:30;95312.47;;;13.58;61.10
83308;BME280;73223;48.584;13.460;2024-02-26T12:29:56;95307.22;;;13.45;64.26
83308;BME280;73223;48.584;13.460;2024-02-26T12:32:21;95309.88;;;13.58;61.30
83308;BME280;73223;48.584;13.460;2024-02-26T12:34:47;95310.91;;;13.80;60.48
83308;BME280;73223;48.584;13.460;2024-02-26T12:37:13;95319.56;;;13.55;62.07
83308;BME280;73223;48.584;13.460;2024-02-26T12:39:38;95315.28;;;14.05;62.85
83308;BME280;73223;48.584;13.460;2024-02-26T12:42:04;95308.00;;;13.98;61.17
83308;BME280;73223;48.584;13.460;2024-02-26T12:44:31;95307.78;;;14.01;60.21
83308;BME280;73223;48.584;13.460;2024-02-26T12:47:02;95302.78;;;13.60;60.71
83308;BME280;73223;48.584;13.460;2024-02-26T12:49:28;95300.16;;;13.47;58.74
83308;BME280;73223;48.584;13.460;2024-02-26T12:51:53;95302.56;;;13.37;59.28